Time;durP1;ratioP1;P1;durP2;ratioP2;P2;SDS_P1;SDS_P2;PMS_P1;PMS_P2;Temp;Humidity;BMP_temperature;BMP_pressure;BME280_temperature;BME280_humidity;BME280_pressure;Samples;Min_cycle;Max_cycle;Signal;HPM_P1;HPM_P2
2023/03/28 00:00:48;;;;;;;;;;;20.10;53.00;;;;;;5053251;28;20292;-76
2023/03/28 00:03:17;;;;;;;;;;;20.10;51.40;;;;;;5052841;28;19908;-76
2023/03/28 00:05:44;;;;;;;;;;;20.10;52.70;;;;;;5035283;28;19927;-76
2023/03/28 00:08:10;;;;;;;;;;;20.00;50.70;;;;;;5053257;28;19920;-76
2023/03/28 00:10:36;;;;;;;;;;;20.00;50.70;;;;;;5035111;28;20359;-76
2023/03/28 00:13:02;;;;;;;;;;;20.00;51.60;;;;;;5053076;28;20375;-76
2023/03/28 00:15:29;;;;;;;;;;;19.90;51.40;;;;;;5035130;28;19995;-76
2023/03/28 00:17:55;;;;;;;;;;;19.70;52.10;;;;;;5035019;28;19909;-77
2023/03/28 00:20:21;;;;;;;;;;;19.80;51.10;;;;;;5052507;28;20031;-76
2023/03/28 00:22:47;;;;;;;;;;;19.80;51.90;;;;;;5053117;28;19939;-76
2023/03/28 00:25:13;;;;;;;;;;;19.70;52.20;;;;;;5052512;28;20396;-76
2023/03/28 00:27:39;;;;;;;;;;;19.80;50.60;;;;;;5053050;28;19908;-76
2023/03/28 00:30:06;;;;;;;;;;;19.80;53.00;;;;;;5052668;28;19908;-76
2023/03/28 00:32:32;;;;;;;;;;;19.80;51.30;;;;;;5052584;28;19946;-76
2023/03/28 00:34:58;;;;;;;;;;;19.80;52.40;;;;;;5052189;28;20019;-76
2023/03/28 00:37:24;;;;;;;;;;;19.90;51.60;;;;;;5052280;28;20400;-77
2023/03/28 00:39:50;;;;;;;;;;;19.70;52.30;;;;;;5034713;28;19962;-76
2023/03/28 00:42:16;;;;;;;;;;;19.80;51.00;;;;;;5034435;28;20435;-76
2023/03/28 00:44:50;;;;;;;;;;;19.70;51.30;;;;;;5052166;28;20438;-76
2023/03/28 00:47:39;;;;;;;;;;;19.80;51.60;;;;;;5034221;28;19915;-76
2023/03/28 00:50:10;;;;;;;;;;;19.90;49.80;;;;;;5052304;28;20360;-76
2023/03/28 00:52:41;;;;;;;;;;;19.70;52.80;;;;;;5052302;28;19952;-76
2023/03/28 00:55:11;;;;;;;;;;;19.70;52.00;;;;;;5052032;28;19912;-76
2023/03/28 00:57:37;;;;;;;;;;;19.70;52.20;;;;;;5052174;28;19962;-76
2023/03/28 01:00:05;;;;;;;;;;;19.80;51.40;;;;;;5034429;28;19920;-76
2023/03/28 01:02:31;;;;;;;;;;;19.80;51.80;;;;;;5034191;28;19920;-76
2023/03/28 01:04:59;;;;;;;;;;;19.70;51.50;;;;;;5034064;28;20368;-77
2023/03/28 01:07:28;;;;;;;;;;;19.70;50.90;;;;;;5034158;28;19999;-76
2023/03/28 01:09:55;;;;;;;;;;;19.70;52.00;;;;;;5017940;28;19912;-76
2023/03/28 01:12:21;;;;;;;;;;;19.70;52.20;;;;;;5033947;28;19913;-76
2023/03/28 01:14:47;;;;;;;;;;;19.90;51.70;;;;;;5034082;28;20031;-76
2023/03/28 01:17:14;;;;;;;;;;;19.70;50.50;;;;;;5033939;28;19920;-76
2023/03/28 01:19:59;;;;;;;;;;;19.60;51.40;;;;;;5033873;28;20364;-76
2023/03/28 01:22:25;;;;;;;;;;;19.60;51.90;;;;;;5033867;28;19916;-76
2023/03/28 01:25:14;;;;;;;;;;;19.60;53.10;;;;;;5033600;28;20043;-76
2023/03/28 01:27:41;;;;;;;;;;;19.70;51.90;;;;;;5034026;28;19912;-76
2023/03/28 01:30:16;;;;;;;;;;;19.50;51.10;;;;;;5050799;28;20015;-76
2023/03/28 01:33:07;;;;;;;;;;;19.40;51.20;;;;;;5033500;28;19909;-76
2023/03/28 01:35:51;;;;;;;;;;;19.50;53.00;;;;;;5033872;28;20414;-76
2023/03/28 01:38:26;;;;;;;;;;;19.50;52.60;;;;;;5033804;28;19908;-76
2023/03/28 01:40:54;;;;;;;;;;;19.20;51.10;;;;;;5033651;28;19912;-76
2023/03/28 01:43:27;;;;;;;;;;;19.50;52.20;;;;;;5033623;28;19908;-76
2023/03/28 01:46:00;;;;;;;;;;;19.50;51.80;;;;;;5033369;28;20447;-76
2023/03/28 01:48:54;;;;;;;;;;;19.40;51.10;;;;;;5033650;28;20380;-76
2023/03/28 01:51:28;;;;;;;;;;;19.40;52.60;;;;;;5033558;28;19915;-76
2023/03/28 01:54:05;;;;;;;;;;;19.60;51.80;;;;;;5033918;28;20364;-76
2023/03/28 01:56:37;;;;;;;;;;;19.50;52.50;;;;;;5033439;28;19909;-76
2023/03/28 01:59:15;;;;;;;;;;;19.60;51.90;;;;;;5051435;28;19951;-76
2023/03/28 02:02:02;;;;;;;;;;;19.50;51.00;;;;;;5051513;28;19957;-76
2023/03/28 02:04:29;;;;;;;;;;;19.50;51.40;;;;;;5033033;28;19923;-76
2023/03/28 02:06:57;;;;;;;;;;;19.50;51.80;;;;;;5033688;28;20431;-76
2023/03/28 02:09:27;;;;;;;;;;;19.50;51.50;;;;;;5033452;28;19943;-76
2023/03/28 02:12:07;;;;;;;;;;;19.60;51.40;;;;;;4999783;28;20245;-76
2023/03/28 02:14:58;;;;;;;;;;;19.60;51.40;;;;;;5033072;28;19936;-76
2023/03/28 02:17:47;;;;;;;;;;;19.60;51.00;;;;;;5050765;28;19986;-76
2023/03/28 02:20:29;;;;;;;;;;;19.60;50.30;;;;;;5033336;28;19909;-76
2023/03/28 02:23:22;;;;;;;;;;;19.50;51.10;;;;;;4989349;28;20009;-76
2023/03/28 02:26:16;;;;;;;;;;;19.60;50.60;;;;;;4931772;29;19930;-76
2023/03/28 02:28:57;;;;;;;;;;;19.40;50.60;;;;;;4931459;29;19977;-76
2023/03/28 02:31:49;;;;;;;;;;;19.40;51.50;;;;;;4912396;29;19915;-76
2023/03/28 02:34:15;;;;;;;;;;;19.50;50.60;;;;;;4912323;29;20450;-76
2023/03/28 02:36:42;;;;;;;;;;;19.40;50.40;;;;;;4896761;29;19911;-76
2023/03/28 02:39:10;;;;;;;;;;;19.30;50.30;;;;;;4912607;29;19922;-76
2023/03/28 02:41:40;;;;;;;;;;;19.30;49.80;;;;;;4898011;29;19911;-76
2023/03/28 02:44:06;;;;;;;;;;;19.40;51.80;;;;;;4915741;29;19919;-76
2023/03/28 02:46:35;;;;;;;;;;;19.20;51.30;;;;;;4915932;29;19915;-76
2023/03/28 02:49:15;;;;;;;;;;;19.30;50.60;;;;;;4915961;29;19969;-76
2023/03/28 02:51:47;;;;;;;;;;;19.30;50.30;;;;;;4916002;29;20367;-76
2023/03/28 02:54:19;;;;;;;;;;;19.20;51.00;;;;;;4900027;29;19915;-76
2023/03/28 02:57:01;;;;;;;;;;;19.30;51.90;;;;;;4899777;29;20006;-76
2023/03/28 02:59:35;;;;;;;;;;;19.00;51.20;;;;;;4907298;29;20374;-76
2023/03/28 03:02:02;;;;;;;;;;;19.20;51.90;;;;;;4959205;28;20085;-76
2023/03/28 03:04:28;;;;;;;;;;;19.30;52.30;;;;;;5031799;28;19999;-76
2023/03/28 03:06:53;;;;;;;;;;;19.50;51.70;;;;;;5015385;28;20016;-76
2023/03/28 03:09:21;;;;;;;;;;;19.40;51.00;;;;;;5031949;28;19912;-76
2023/03/28 03:11:47;;;;;;;;;;;19.40;51.20;;;;;;5036363;28;19913;-75
2023/03/28 03:14:13;;;;;;;;;;;19.40;50.20;;;;;;5054076;28;20051;-76
2023/03/28 03:16:42;;;;;;;;;;;19.40;49.90;;;;;;5036401;28;20029;-76
2023/03/28 03:19:08;;;;;;;;;;;19.40;50.30;;;;;;5036085;28;19916;-76
2023/03/28 03:21:35;;;;;;;;;;;19.40;50.80;;;;;;5053890;28;19913;-76
2023/03/28 03:24:02;;;;;;;;;;;19.30;49.80;;;;;;5036001;28;19927;-76
2023/03/28 03:26:28;;;;;;;;;;;19.30;50.60;;;;;;5036040;28;19909;-76
2023/03/28 03:29:01;;;;;;;;;;;19.30;51.20;;;;;;5036076;28;19919;-76
2023/03/28 03:31:30;;;;;;;;;;;19.50;50.80;;;;;;5036040;28;19972;-76
2023/03/28 03:34:02;;;;;;;;;;;19.40;50.80;;;;;;5053807;28;19954;-76
2023/03/28 03:36:33;;;;;;;;;;;19.40;50.70;;;;;;5035856;28;19912;-76
2023/03/28 03:38:59;;;;;;;;;;;19.40;51.50;;;;;;5035592;28;19940;-76
2023/03/28 03:41:25;;;;;;;;;;;19.40;50.60;;;;;;5036187;28;19915;-76
2023/03/28 03:43:51;;;;;;;;;;;19.50;50.70;;;;;;5053207;28;20269;-76
2023/03/28 03:46:17;;;;;;;;;;;19.40;51.20;;;;;;5035369;28;19948;-76
2023/03/28 03:48:44;;;;;;;;;;;19.50;50.00;;;;;;5036041;28;19931;-76
2023/03/28 03:51:10;;;;;;;;;;;19.50;50.30;;;;;;5035340;28;20380;-76
2023/03/28 03:53:38;;;;;;;;;;;19.40;49.20;;;;;;5052369;28;20287;-76
2023/03/28 03:56:13;;;;;;;;;;;19.30;50.60;;;;;;5035159;28;19944;-76
2023/03/28 03:58:54;;;;;;;;;;;19.40;50.90;;;;;;5035452;28;19919;-76
2023/03/28 04:01:24;;;;;;;;;;;19.40;50.80;;;;;;5035909;28;19909;-76
2023/03/28 04:03:51;;;;;;;;;;;19.30;50.60;;;;;;5036861;28;19920;-76
2023/03/28 04:06:23;;;;;;;;;;;19.20;50.20;;;;;;5035082;28;19913;-76
2023/03/28 04:08:50;;;;;;;;;;;19.30;50.90;;;;;;5035187;28;19955;-76
2023/03/28 04:11:26;;;;;;;;;;;19.30;50.50;;;;;;5034903;28;19966;-76
2023/03/28 04:13:52;;;;;;;;;;;19.40;51.60;;;;;;5060066;28;19920;-76
2023/03/28 04:16:19;;;;;;;;;;;19.30;50.10;;;;;;5072863;28;19908;-76
2023/03/28 04:18:54;;;;;;;;;;;19.30;50.90;;;;;;5071630;28;19912;-76
2023/03/28 04:21:24;;;;;;;;;;;19.30;51.20;;;;;;5071471;28;19947;-76
2023/03/28 04:23:50;;;;;;;;;;;19.40;51.20;;;;;;5071503;28;19959;-76
2023/03/28 04:26:27;;;;;;;;;;;19.20;51.10;;;;;;5071135;28;19966;-76
2023/03/28 04:29:11;;;;;;;;;;;19.30;51.70;;;;;;5050212;28;19915;-77
2023/03/28 04:31:40;;;;;;;;;;;19.50;50.30;;;;;;5033473;28;19908;-76
2023/03/28 04:34:28;;;;;;;;;;;19.60;50.50;;;;;;5050146;28;19909;-77
2023/03/28 04:37:05;;;;;;;;;;;19.60;49.40;;;;;;5033648;28;19910;-76
2023/03/28 04:39:40;;;;;;;;;;;19.60;49.50;;;;;;5017022;28;20427;-76
2023/03/28 04:42:24;;;;;;;;;;;19.50;49.00;;;;;;5050027;28;20003;-76
2023/03/28 04:45:05;;;;;;;;;;;19.40;50.50;;;;;;5033036;28;19920;-76
2023/03/28 04:47:31;;;;;;;;;;;19.40;50.20;;;;;;5050155;28;20455;-76
2023/03/28 04:49:57;;;;;;;;;;;19.40;50.80;;;;;;5033135;28;20399;-76
2023/03/28 04:52:25;;;;;;;;;;;19.40;49.80;;;;;;5033810;28;19955;-76
2023/03/28 04:54:51;;;;;;;;;;;19.50;50.90;;;;;;5032802;28;20400;-77
2023/03/28 04:57:20;;;;;;;;;;;19.40;50.30;;;;;;5016525;28;20577;-76
2023/03/28 04:59:51;;;;;;;;;;;19.40;51.40;;;;;;5044766;28;19942;-76
2023/03/28 05:02:42;;;;;;;;;;;19.30;50.30;;;;;;5072255;28;19955;-76
2023/03/28 05:05:11;;;;;;;;;;;19.40;48.60;;;;;;5053623;28;19974;-76
2023/03/28 05:07:37;;;;;;;;;;;19.40;49.80;;;;;;5049470;28;19913;-77
2023/03/28 05:10:05;;;;;;;;;;;19.30;50.90;;;;;;5032751;28;20627;-76
2023/03/28 05:12:38;;;;;;;;;;;19.30;49.90;;;;;;5016007;28;19956;-76
2023/03/28 05:15:05;;;;;;;;;;;19.20;48.40;;;;;;5032721;28;19963;-76
2023/03/28 05:17:33;;;;;;;;;;;19.30;50.20;;;;;;5032880;28;19912;-76
2023/03/28 05:20:01;;;;;;;;;;;19.40;48.70;;;;;;5032607;28;19960;-76
2023/03/28 05:22:35;;;;;;;;;;;19.30;50.80;;;;;;5032772;28;19916;-76
2023/03/28 05:25:07;;;;;;;;;;;19.30;51.30;;;;;;5032402;28;19917;-77
2023/03/28 05:27:37;;;;;;;;;;;19.30;50.90;;;;;;5032652;28;20407;-76
2023/03/28 05:30:06;;;;;;;;;;;19.40;51.20;;;;;;5049242;28;19913;-76
2023/03/28 05:32:33;;;;;;;;;;;19.50;51.50;;;;;;5016364;28;19912;-76
2023/03/28 05:35:00;;;;;;;;;;;19.50;50.20;;;;;;5032947;28;19916;-77
2023/03/28 05:37:30;;;;;;;;;;;19.80;50.90;;;;;;5017535;28;19966;-77
2023/03/28 05:39:57;;;;;;;;;;;19.50;49.70;;;;;;5070443;28;20463;-76
2023/03/28 05:42:23;;;;;;;;;;;19.50;49.70;;;;;;5070115;28;20380;-76
2023/03/28 05:44:49;;;;;;;;;;;19.40;50.10;;;;;;5070138;28;19917;-76
2023/03/28 05:47:49;;;;;;;;;;;19.40;49.20;;;;;;5070289;28;20011;-76
2023/03/28 05:50:15;;;;;;;;;;;19.30;49.50;;;;;;5070435;28;19919;-76
2023/03/28 05:52:41;;;;;;;;;;;19.50;50.50;;;;;;5070300;28;19912;-76
2023/03/28 05:55:07;;;;;;;;;;;19.40;49.50;;;;;;5071319;28;19908;-76
2023/03/28 05:57:33;;;;;;;;;;;19.30;51.10;;;;;;5053320;28;19957;-76
2023/03/28 06:00:09;;;;;;;;;;;19.30;49.60;;;;;;5070135;28;20284;-76
2023/03/28 06:02:44;;;;;;;;;;;19.40;50.50;;;;;;5071566;28;19912;-76
2023/03/28 06:05:10;;;;;;;;;;;19.40;50.00;;;;;;5069906;28;19927;-76
2023/03/28 06:07:37;;;;;;;;;;;19.20;49.70;;;;;;5069887;28;19915;-76
2023/03/28 06:10:05;;;;;;;;;;;19.20;50.00;;;;;;5071332;28;20016;-76
2023/03/28 06:12:32;;;;;;;;;;;19.20;49.50;;;;;;5033541;28;20280;-76
2023/03/28 06:15:00;;;;;;;;;;;19.30;50.60;;;;;;5033648;28;19920;-76
2023/03/28 06:17:30;;;;;;;;;;;19.30;49.70;;;;;;5035840;28;19908;-76
2023/03/28 06:19:58;;;;;;;;;;;19.30;48.00;;;;;;5037230;28;19909;-76
2023/03/28 06:22:25;;;;;;;;;;;19.20;47.80;;;;;;5037131;28;19908;-76
2023/03/28 06:24:56;;;;;;;;;;;19.00;49.30;;;;;;5036970;28;20396;-76
2023/03/28 06:27:31;;;;;;;;;;;19.10;48.60;;;;;;5037114;28;19920;-76
2023/03/28 06:29:58;;;;;;;;;;;18.80;48.10;;;;;;5037214;28;19917;-76
2023/03/28 06:32:25;;;;;;;;;;;18.90;49.70;;;;;;5037020;28;19954;-76
2023/03/28 06:34:51;;;;;;;;;;;18.90;50.50;;;;;;5036936;28;19916;-76
2023/03/28 06:37:18;;;;;;;;;;;19.00;51.20;;;;;;5036768;28;19912;-76
2023/03/28 06:39:53;;;;;;;;;;;19.10;51.10;;;;;;5037606;28;19913;-76
2023/03/28 06:42:19;;;;;;;;;;;19.10;50.40;;;;;;5036922;28;19915;-75
2023/03/28 06:44:54;;;;;;;;;;;19.10;49.00;;;;;;5036796;28;19921;-76
2023/03/28 06:47:44;;;;;;;;;;;19.20;47.00;;;;;;5054149;28;19979;-76
2023/03/28 06:50:11;;;;;;;;;;;19.00;50.40;;;;;;5036852;28;19913;-76
2023/03/28 06:52:50;;;;;;;;;;;19.00;49.20;;;;;;5036674;28;19909;-76
2023/03/28 06:55:16;;;;;;;;;;;19.10;49.80;;;;;;5036621;28;20380;-76
2023/03/28 06:57:42;;;;;;;;;;;19.20;46.90;;;;;;5054090;28;19913;-76
2023/03/28 07:00:19;;;;;;;;;;;19.20;50.70;;;;;;5036487;28;20026;-76
2023/03/28 07:03:04;;;;;;;;;;;19.10;49.70;;;;;;5054369;28;19952;-76
2023/03/28 07:05:30;;;;;;;;;;;19.10;50.80;;;;;;5036337;28;19943;-76
2023/03/28 07:07:56;;;;;;;;;;;19.20;49.80;;;;;;5036108;28;19909;-76
2023/03/28 07:10:23;;;;;;;;;;;19.30;50.90;;;;;;5054308;28;19951;-76
2023/03/28 07:12:49;;;;;;;;;;;19.40;50.60;;;;;;5054062;28;20063;-76
2023/03/28 07:15:15;;;;;;;;;;;19.30;50.40;;;;;;5036470;28;20008;-76
2023/03/28 07:17:41;;;;;;;;;;;19.50;49.30;;;;;;5036323;28;19913;-75
2023/03/28 07:20:07;;;;;;;;;;;19.30;49.90;;;;;;5036189;28;19909;-76
2023/03/28 07:22:34;;;;;;;;;;;19.40;48.40;;;;;;5036327;28;19999;-76
2023/03/28 07:25:00;;;;;;;;;;;19.20;49.60;;;;;;5053736;28;20492;-76
2023/03/28 07:27:26;;;;;;;;;;;19.40;51.80;;;;;;5035532;28;19908;-75
2023/03/28 07:29:52;;;;;;;;;;;19.20;49.70;;;;;;5034889;28;19909;-76
2023/03/28 07:32:17;;;;;;;;;;;19.30;49.70;;;;;;5036136;28;19958;-76
2023/03/28 07:34:44;;;;;;;;;;;19.40;49.10;;;;;;5035917;28;19908;-76
2023/03/28 07:37:16;;;;;;;;;;;19.40;47.40;;;;;;5011168;28;20386;-76
2023/03/28 07:39:53;;;;;;;;;;;19.10;47.20;;;;;;4995144;28;19992;-76
2023/03/28 07:42:22;;;;;;;;;;;18.90;48.00;;;;;;5011338;28;20328;-76
2023/03/28 07:44:48;;;;;;;;;;;18.90;47.90;;;;;;5011314;28;19989;-76
2023/03/28 07:47:16;;;;;;;;;;;18.80;49.40;;;;;;4994684;28;19913;-76
2023/03/28 07:49:44;;;;;;;;;;;18.90;47.30;;;;;;4995028;28;19909;-76
2023/03/28 07:52:10;;;;;;;;;;;18.70;48.30;;;;;;5011299;28;20004;-76
2023/03/28 07:54:36;;;;;;;;;;;18.80;49.30;;;;;;5011311;28;20008;-76
2023/03/28 07:57:03;;;;;;;;;;;18.80;49.30;;;;;;5011042;28;19952;-76
2023/03/28 07:59:57;;;;;;;;;;;18.70;47.60;;;;;;4991571;28;19920;-76
2023/03/28 08:02:24;;;;;;;;;;;18.80;47.80;;;;;;4991645;28;19917;-76
2023/03/28 08:04:52;;;;;;;;;;;18.60;46.40;;;;;;4975207;28;20383;-76
2023/03/28 08:07:24;;;;;;;;;;;18.70;49.40;;;;;;4993653;28;19910;-76
2023/03/28 08:09:51;;;;;;;;;;;18.80;49.00;;;;;;5010943;28;20419;-75
2023/03/28 08:12:23;;;;;;;;;;;18.80;47.00;;;;;;4994550;28;19913;-75
2023/03/28 08:14:50;;;;;;;;;;;18.70;48.90;;;;;;4994515;28;19959;-76
2023/03/28 08:17:21;;;;;;;;;;;18.60;48.20;;;;;;4979008;28;20000;-76
2023/03/28 08:19:47;;;;;;;;;;;18.70;47.00;;;;;;4994530;28;19918;-76
2023/03/28 08:22:13;;;;;;;;;;;18.70;48.10;;;;;;5010809;28;19914;-76
2023/03/28 08:25:06;;;;;;;;;;;18.60;47.60;;;;;;4990930;28;19921;-76
2023/03/28 08:27:32;;;;;;;;;;;18.60;49.00;;;;;;4990939;28;19913;-76
2023/03/28 08:30:06;;;;;;;;;;;18.60;48.60;;;;;;4974915;28;20019;-76
2023/03/28 08:32:34;;;;;;;;;;;18.70;49.30;;;;;;4974594;28;19921;-76
2023/03/28 08:35:02;;;;;;;;;;;18.60;50.20;;;;;;4974758;28;20053;-76
2023/03/28 08:37:30;;;;;;;;;;;18.50;47.70;;;;;;4956178;28;19957;-76
2023/03/28 08:39:59;;;;;;;;;;;18.50;49.10;;;;;;4971038;28;19962;-76
2023/03/28 08:42:28;;;;;;;;;;;18.50;48.60;;;;;;4971079;28;19929;-76
2023/03/28 08:44:58;;;;;;;;;;;18.50;49.20;;;;;;4971398;28;20471;-76
2023/03/28 08:47:25;;;;;;;;;;;18.40;48.70;;;;;;4954968;28;19910;-76
2023/03/28 08:49:54;;;;;;;;;;;18.50;48.40;;;;;;4971366;28;19910;-76
2023/03/28 08:52:21;;;;;;;;;;;18.30;47.90;;;;;;4971041;28;20008;-76
2023/03/28 08:55:05;;;;;;;;;;;18.50;47.80;;;;;;4971221;28;19910;-76
2023/03/28 08:57:33;;;;;;;;;;;18.30;48.10;;;;;;4954803;28;19914;-76
2023/03/28 09:00:13;;;;;;;;;;;18.50;48.70;;;;;;4971351;28;19948;-76
2023/03/28 09:02:40;;;;;;;;;;;18.40;49.10;;;;;;5036316;28;19941;-76
2023/03/28 09:05:29;;;;;;;;;;;18.40;51.10;;;;;;5052125;28;19934;-77
2023/03/28 09:08:05;;;;;;;;;;;18.60;50.50;;;;;;5034788;28;19915;-76
2023/03/28 09:10:31;;;;;;;;;;;18.70;49.50;;;;;;5033999;28;19943;-76
2023/03/28 09:13:07;;;;;;;;;;;18.70;49.30;;;;;;5045663;28;20588;-76
2023/03/28 09:15:39;;;;;;;;;;;18.60;49.10;;;;;;5049276;28;19913;-76
2023/03/28 09:18:21;;;;;;;;;;;18.70;48.90;;;;;;5016076;28;19908;-76
2023/03/28 09:20:50;;;;;;;;;;;18.80;50.30;;;;;;5000699;28;19940;-76
2023/03/28 09:23:29;;;;;;;;;;;18.80;47.70;;;;;;5018068;28;20036;-76
2023/03/28 09:26:15;;;;;;;;;;;18.80;48.50;;;;;;5049312;28;20020;-76
2023/03/28 09:28:47;;;;;;;;;;;18.80;50.20;;;;;;5016403;28;19912;-76
2023/03/28 09:31:15;;;;;;;;;;;18.90;49.40;;;;;;5049082;28;19927;-76
2023/03/28 09:33:44;;;;;;;;;;;19.00;47.80;;;;;;5049088;28;20479;-76
2023/03/28 09:36:17;;;;;;;;;;;19.00;49.20;;;;;;5032118;28;20376;-76
2023/03/28 09:38:46;;;;;;;;;;;19.00;50.10;;;;;;5032073;28;19965;-76
2023/03/28 09:41:20;;;;;;;;;;;19.00;48.80;;;;;;5032288;28;20334;-76
2023/03/28 09:44:17;;;;;;;;;;;18.90;49.00;;;;;;4989509;28;19929;-76
2023/03/28 09:47:05;;;;;;;;;;;18.90;49.30;;;;;;5003233;28;20007;-76
2023/03/28 09:49:43;;;;;;;;;;;18.90;49.20;;;;;;4992836;28;20384;-76
2023/03/28 09:52:17;;;;;;;;;;;18.90;47.70;;;;;;4992297;28;19916;-76
2023/03/28 09:54:44;;;;;;;;;;;18.90;47.60;;;;;;4992940;28;19931;-76
2023/03/28 09:57:10;;;;;;;;;;;19.00;48.00;;;;;;5009216;28;19909;-76
2023/03/28 09:59:45;;;;;;;;;;;18.90;49.40;;;;;;5008966;28;20809;-76
2023/03/28 10:02:27;;;;;;;;;;;18.90;48.40;;;;;;4992767;28;19909;-76
2023/03/28 10:04:54;;;;;;;;;;;18.90;48.40;;;;;;4992775;28;19925;-76
2023/03/28 10:07:42;;;;;;;;;;;18.90;46.70;;;;;;4992658;28;19924;-76
2023/03/28 10:10:31;;;;;;;;;;;18.80;46.80;;;;;;5007056;28;19974;-76
2023/03/28 10:13:03;;;;;;;;;;;18.50;45.00;;;;;;4992738;28;20678;-76
2023/03/28 10:15:32;;;;;;;;;;;18.60;48.60;;;;;;5009240;28;19917;-76
2023/03/28 10:18:18;;;;;;;;;;;18.70;48.30;;;;;;5008905;28;20300;-76
2023/03/28 10:20:50;;;;;;;;;;;18.70;46.50;;;;;;5043092;28;19908;-75
2023/03/28 10:23:16;;;;;;;;;;;18.60;46.90;;;;;;5069718;28;19957;-76
2023/03/28 10:25:44;;;;;;;;;;;18.80;51.60;;;;;;5035863;28;20351;-76
2023/03/28 10:28:22;;;;;;;;;;;18.60;49.20;;;;;;5068216;28;19909;-76
2023/03/28 10:30:52;;;;;;;;;;;18.80;49.70;;;;;;5051932;28;19924;-76
2023/03/28 10:33:20;;;;;;;;;;;18.80;48.90;;;;;;5051838;28;20421;-76
2023/03/28 10:36:22;;;;;;;;;;;18.90;49.90;;;;;;5051893;28;19912;-76
2023/03/28 10:38:49;;;;;;;;;;;19.00;48.80;;;;;;5051589;28;20351;-76
2023/03/28 10:41:34;;;;;;;;;;;19.00;47.90;;;;;;5068426;28;19912;-76
2023/03/28 10:44:16;;;;;;;;;;;19.10;50.20;;;;;;5068366;28;19916;-76
2023/03/28 10:46:48;;;;;;;;;;;19.10;47.70;;;;;;5068384;28;20395;-76
2023/03/28 10:49:43;;;;;;;;;;;19.20;46.80;;;;;;5008630;28;19909;-76
2023/03/28 10:52:28;;;;;;;;;;;19.10;49.80;;;;;;4992364;28;19988;-76
2023/03/28 10:54:57;;;;;;;;;;;19.20;47.00;;;;;;4992497;28;20381;-76
2023/03/28 10:57:56;;;;;;;;;;;19.20;48.40;;;;;;4912265;29;20260;-76
2023/03/28 11:00:26;;;;;;;;;;;19.10;47.20;;;;;;4930842;29;19920;-76
2023/03/28 11:03:20;;;;;;;;;;;19.20;49.60;;;;;;4916644;29;20426;-76
2023/03/28 11:05:56;;;;;;;;;;;19.20;47.70;;;;;;4859260;29;20419;-76
2023/03/28 11:08:35;;;;;;;;;;;19.10;46.00;;;;;;4843942;29;19923;-76
2023/03/28 11:11:11;;;;;;;;;;;19.00;47.90;;;;;;4859418;29;19934;-76
2023/03/28 11:13:54;;;;;;;;;;;19.10;49.40;;;;;;4859217;29;19935;-76
2023/03/28 11:16:26;;;;;;;;;;;19.10;46.50;;;;;;4859312;29;20022;-76
2023/03/28 11:19:05;;;;;;;;;;;19.00;48.20;;;;;;4859128;29;19921;-76
2023/03/28 11:21:45;;;;;;;;;;;19.00;47.10;;;;;;4859275;29;20277;-76
2023/03/28 11:24:29;;;;;;;;;;;19.00;50.00;;;;;;4859080;29;19963;-76
2023/03/28 11:27:21;;;;;;;;;;;19.00;45.60;;;;;;4886006;29;20007;-76
2023/03/28 11:30:09;;;;;;;;;;;19.10;45.40;;;;;;4896640;29;19998;-76
2023/03/28 11:32:45;;;;;;;;;;;18.80;46.30;;;;;;4896347;29;19943;-76
2023/03/28 11:35:14;;;;;;;;;;;18.90;44.90;;;;;;4948099;28;20390;-76
2023/03/28 11:37:50;;;;;;;;;;;18.90;44.80;;;;;;4975746;28;20282;-76
2023/03/28 11:40:24;;;;;;;;;;;18.90;46.70;;;;;;4959801;28;19980;-76
2023/03/28 11:43:24;;;;;;;;;;;18.90;46.40;;;;;;5007996;28;19913;-76
2023/03/28 11:45:54;;;;;;;;;;;18.80;45.70;;;;;;5030995;28;19923;-76
2023/03/28 11:48:23;;;;;;;;;;;18.90;46.30;;;;;;5014366;28;19916;-76
2023/03/28 11:50:55;;;;;;;;;;;18.80;46.20;;;;;;5014675;28;19913;-76
2023/03/28 11:53:32;;;;;;;;;;;18.80;46.10;;;;;;5014517;28;19917;-76
2023/03/28 11:56:08;;;;;;;;;;;18.70;48.40;;;;;;5031140;28;19920;-76
2023/03/28 11:59:02;;;;;;;;;;;18.60;46.30;;;;;;5011214;28;19975;-76
2023/03/28 12:01:33;;;;;;;;;;;18.50;46.60;;;;;;4994784;28;20400;-75
2023/03/28 12:04:11;;;;;;;;;;;18.50;47.80;;;;;;5011039;28;19920;-76
2023/03/28 12:06:43;;;;;;;;;;;18.60;47.70;;;;;;5011151;28;19913;-76
2023/03/28 12:09:13;;;;;;;;;;;18.70;49.30;;;;;;5010703;28;19909;-75
2023/03/28 12:11:41;;;;;;;;;;;18.70;48.10;;;;;;4994745;28;19920;-76
2023/03/28 12:14:26;;;;;;;;;;;18.80;48.90;;;;;;4993555;28;19924;-76
2023/03/28 12:16:57;;;;;;;;;;;18.80;47.50;;;;;;5011012;28;19948;-76
2023/03/28 12:19:35;;;;;;;;;;;18.80;46.20;;;;;;4998702;28;20011;-76
2023/03/28 12:22:11;;;;;;;;;;;18.70;49.10;;;;;;5030279;28;19908;-76
2023/03/28 12:24:58;;;;;;;;;;;18.90;49.30;;;;;;5030341;28;20296;-76
2023/03/28 12:27:51;;;;;;;;;;;18.90;47.10;;;;;;5014126;28;19909;-76
2023/03/28 12:30:31;;;;;;;;;;;18.90;49.70;;;;;;5013679;28;19919;-76
2023/03/28 12:33:16;;;;;;;;;;;19.00;49.40;;;;;;5013899;28;19920;-76
2023/03/28 12:36:11;;;;;;;;;;;19.00;47.40;;;;;;5032116;28;19935;-76
2023/03/28 12:38:46;;;;;;;;;;;19.10;49.10;;;;;;5029935;28;19921;-76
2023/03/28 12:41:36;;;;;;;;;;;19.20;49.40;;;;;;5013674;28;19909;-76
2023/03/28 12:44:25;;;;;;;;;;;19.20;49.00;;;;;;5013761;28;20345;-76
2023/03/28 12:46:55;;;;;;;;;;;19.20;48.80;;;;;;4971145;28;19914;-76
2023/03/28 12:49:40;;;;;;;;;;;19.20;46.10;;;;;;4932393;29;19915;-76
2023/03/28 12:52:14;;;;;;;;;;;19.20;47.40;;;;;;4918806;29;20300;-76
2023/03/28 12:54:54;;;;;;;;;;;19.30;48.70;;;;;;4951756;29;19910;-76
2023/03/28 12:57:45;;;;;;;;;;;19.40;47.80;;;;;;4951877;29;20013;-76
2023/03/28 13:00:49;;;;;;;;;;;19.40;47.40;;;;;;4951928;29;19921;-76
2023/03/28 13:03:56;;;;;;;;;;;19.50;46.90;;;;;;4913406;29;19915;-76
2023/03/28 13:06:56;;;;;;;;;;;19.50;45.60;;;;;;4897638;29;19929;-76
2023/03/28 13:09:34;;;;;;;;;;;19.60;44.60;;;;;;4927428;29;19931;-77
2023/03/28 13:12:19;;;;;;;;;;;19.50;46.80;;;;;;4951757;29;19914;-76
2023/03/28 13:14:56;;;;;;;;;;;19.70;47.70;;;;;;4951689;29;20465;-76
2023/03/28 13:17:24;;;;;;;;;;;19.70;46.50;;;;;;4951464;29;19910;-76
2023/03/28 13:19:54;;;;;;;;;;;19.60;46.00;;;;;;4955772;28;19910;-75
2023/03/28 13:22:29;;;;;;;;;;;19.70;45.00;;;;;;4970877;28;19910;-76
2023/03/28 13:25:15;;;;;;;;;;;19.80;45.50;;;;;;4970447;28;19917;-76
2023/03/28 13:27:41;;;;;;;;;;;19.70;46.20;;;;;;4970507;28;19910;-76
2023/03/28 13:30:15;;;;;;;;;;;19.70;46.70;;;;;;4970382;28;19910;-76
2023/03/28 13:32:44;;;;;;;;;;;19.70;45.40;;;;;;4970620;28;19910;-76
2023/03/28 13:35:30;;;;;;;;;;;19.70;45.60;;;;;;4970553;28;19910;-76
2023/03/28 13:38:11;;;;;;;;;;;19.80;46.90;;;;;;4970618;28;19917;-76
2023/03/28 13:40:49;;;;;;;;;;;19.80;48.90;;;;;;5025840;28;20205;-76
2023/03/28 13:43:21;;;;;;;;;;;19.90;46.60;;;;;;5071643;28;20248;-76
2023/03/28 13:45:48;;;;;;;;;;;19.90;47.00;;;;;;5071577;28;19916;-76
2023/03/28 13:48:14;;;;;;;;;;;19.90;47.70;;;;;;5070391;28;19912;-76
2023/03/28 13:50:41;;;;;;;;;;;20.00;45.90;;;;;;5071293;28;19916;-76
2023/03/28 13:53:07;;;;;;;;;;;20.00;48.80;;;;;;5071414;28;20017;-76
2023/03/28 13:55:33;;;;;;;;;;;20.00;48.60;;;;;;5071379;28;20414;-76
2023/03/28 13:58:00;;;;;;;;;;;20.00;45.60;;;;;;5071561;28;19994;-76
2023/03/28 14:00:27;;;;;;;;;;;20.00;47.50;;;;;;5071256;28;19908;-76
2023/03/28 14:03:00;;;;;;;;;;;20.00;45.60;;;;;;5071713;28;19973;-78
2023/03/28 14:05:30;;;;;;;;;;;20.00;46.00;;;;;;5069990;28;19942;-76
2023/03/28 14:08:24;;;;;;;;;;;20.10;43.50;;;;;;5070125;28;19918;-76
2023/03/28 14:10:51;;;;;;;;;;;19.80;44.20;;;;;;4989484;28;19909;-76
2023/03/28 14:13:28;;;;;;;;;;;19.70;46.10;;;;;;4989528;28;19922;-76
2023/03/28 14:15:54;;;;;;;;;;;19.50;44.70;;;;;;4990276;28;19964;-76
2023/03/28 14:18:36;;;;;;;;;;;19.50;44.80;;;;;;4989483;28;19913;-76
2023/03/28 14:21:05;;;;;;;;;;;19.50;43.80;;;;;;4973146;28;19909;-76
2023/03/28 14:23:33;;;;;;;;;;;19.20;47.40;;;;;;4989490;28;20750;-76
2023/03/28 14:26:14;;;;;;;;;;;19.40;45.60;;;;;;4973347;28;19921;-76
2023/03/28 14:28:42;;;;;;;;;;;19.40;43.60;;;;;;4989489;28;19917;-76
2023/03/28 14:31:12;;;;;;;;;;;19.30;45.60;;;;;;4973053;28;20401;-76
2023/03/28 14:33:39;;;;;;;;;;;19.20;43.60;;;;;;4989414;28;19910;-76
2023/03/28 14:36:05;;;;;;;;;;;19.30;42.90;;;;;;4989221;28;19917;-76
2023/03/28 14:38:32;;;;;;;;;;;19.20;45.30;;;;;;4991683;28;19910;-76
2023/03/28 14:41:05;;;;;;;;;;;19.20;45.60;;;;;;4976672;28;19944;-76
2023/03/28 14:43:31;;;;;;;;;;;19.20;44.10;;;;;;4993200;28;19932;-76
2023/03/28 14:46:01;;;;;;;;;;;19.30;42.20;;;;;;4992932;28;20370;-76
2023/03/28 14:48:28;;;;;;;;;;;19.10;45.10;;;;;;5062562;28;19916;-76
2023/03/28 14:50:54;;;;;;;;;;;19.20;45.10;;;;;;5074416;28;20396;-76